createdAt,value
2018-03-14T00:01:40.065Z,6.20
2018-03-14T00:04:07.543Z,6.20
2018-03-14T00:06:35.145Z,6.10
2018-03-14T00:09:03.374Z,6.10
2018-03-14T00:11:30.832Z,6.00
2018-03-14T00:13:58.321Z,6.10
2018-03-14T00:16:25.882Z,6.00
2018-03-14T00:18:54.121Z,6.00
2018-03-14T00:21:21.588Z,5.90
2018-03-14T00:23:49.061Z,5.90
2018-03-14T00:26:16.641Z,5.90
2018-03-14T00:28:45.367Z,5.90
2018-03-14T00:31:12.832Z,5.80
2018-03-14T00:33:40.309Z,5.90
2018-03-14T00:36:07.788Z,5.90
2018-03-14T00:38:35.258Z,5.90
2018-03-14T00:41:03.514Z,5.80
2018-03-14T00:43:30.984Z,5.80
2018-03-14T00:45:59.250Z,5.80
2018-03-14T00:48:26.803Z,5.70
2018-03-14T00:50:54.264Z,5.80
2018-03-14T00:53:21.733Z,5.90
2018-03-14T00:55:49.956Z,5.90
2018-03-14T00:58:17.453Z,5.90
2018-03-14T01:00:45.019Z,6.00
2018-03-14T01:03:12.576Z,6.00
2018-03-14T01:05:40.818Z,5.80
2018-03-14T01:08:08.308Z,5.70
2018-03-14T01:10:36.556Z,5.90
2018-03-14T01:13:04.043Z,5.80
2018-03-14T01:15:31.601Z,5.80
2018-03-14T01:17:59.078Z,5.80
2018-03-14T01:20:26.566Z,5.70
2018-03-14T01:22:54.073Z,5.70
2018-03-14T01:25:21.580Z,5.70
2018-03-14T01:27:49.052Z,5.70
2018-03-14T01:30:16.648Z,5.70
2018-03-14T01:32:44.886Z,5.70
2018-03-14T01:35:12.354Z,5.70
2018-03-14T01:37:39.826Z,5.70
2018-03-14T01:40:07.306Z,5.70
2018-03-14T01:42:35.666Z,5.60
2018-03-14T01:45:03.232Z,5.60
2018-03-14T01:47:31.462Z,5.60
2018-03-14T01:49:58.977Z,5.50
2018-03-14T01:52:26.445Z,5.50
2018-03-14T01:54:53.995Z,5.40
2018-03-14T01:57:21.470Z,5.50
2018-03-14T01:59:48.986Z,5.50
2018-03-14T02:02:16.540Z,5.60
2018-03-14T02:04:44.105Z,5.50
2018-03-14T02:07:12.382Z,5.50
2018-03-14T02:09:40.649Z,5.50
2018-03-14T02:12:08.225Z,5.40
2018-03-14T02:14:36.462Z,5.40
2018-03-14T02:17:03.946Z,5.40
2018-03-14T02:19:31.507Z,5.40
2018-03-14T02:21:59.066Z,5.40
2018-03-14T02:24:27.334Z,5.30
2018-03-14T02:26:55.606Z,5.40
2018-03-14T02:29:23.071Z,5.30
2018-03-14T02:31:50.627Z,5.40
2018-03-14T02:34:18.194Z,5.50
2018-03-14T02:36:58.445Z,5.50
2018-03-14T02:39:26.006Z,5.40
2018-03-14T02:41:54.241Z,5.40
2018-03-14T02:44:21.749Z,5.40
2018-03-14T02:46:49.978Z,5.40
2018-03-14T02:49:17.462Z,5.30
2018-03-14T02:51:45.027Z,5.30
2018-03-14T02:54:12.582Z,5.30
2018-03-14T02:56:40.139Z,5.30
2018-03-14T02:59:07.606Z,5.30
2018-03-14T03:01:35.069Z,5.30
2018-03-14T03:04:03.306Z,5.30
2018-03-14T03:06:30.768Z,5.20
2018-03-14T03:08:58.230Z,5.20
2018-03-14T03:11:25.807Z,5.30
2018-03-14T03:13:53.274Z,5.20
2018-03-14T03:16:21.646Z,5.30
2018-03-14T03:18:49.102Z,5.20
2018-03-14T03:21:16.582Z,5.30
2018-03-14T03:23:44.880Z,5.30
2018-03-14T03:26:12.341Z,5.20
2018-03-14T03:28:39.814Z,5.30
2018-03-14T03:31:07.283Z,5.30
2018-03-14T03:33:34.758Z,5.30
2018-03-14T03:36:02.249Z,5.30
2018-03-14T03:38:29.722Z,5.30
2018-03-14T03:40:57.230Z,5.30
2018-03-14T03:43:24.701Z,5.30
2018-03-14T03:45:52.925Z,5.30
2018-03-14T03:48:20.421Z,5.20
2018-03-14T03:50:47.978Z,5.30
2018-03-14T03:53:15.450Z,5.30
2018-03-14T03:55:43.673Z,5.40
2018-03-14T03:58:11.169Z,5.30
2018-03-14T04:00:38.736Z,5.40
2018-03-14T04:03:06.149Z,5.40
2018-03-14T04:05:33.605Z,5.40
2018-03-14T04:08:01.075Z,5.50
2018-03-14T04:10:28.535Z,5.40
2018-03-14T04:12:56.025Z,5.40
2018-03-14T04:15:24.258Z,5.40
2018-03-14T04:17:51.713Z,5.40
2018-03-14T04:20:19.182Z,5.40
2018-03-14T04:22:46.637Z,5.40
2018-03-14T04:25:14.098Z,5.40
2018-03-14T04:27:41.614Z,5.50
2018-03-14T04:30:09.077Z,5.40
2018-03-14T04:32:36.530Z,5.30
2018-03-14T04:35:03.998Z,5.30
2018-03-14T04:37:31.464Z,5.30
2018-03-14T04:39:58.923Z,5.40
2018-03-14T04:42:26.389Z,5.40
2018-03-14T04:44:53.961Z,5.40
2018-03-14T04:47:21.522Z,5.40
2018-03-14T04:49:49.758Z,5.30
2018-03-14T04:52:17.254Z,5.30
2018-03-14T04:54:44.815Z,5.40
2018-03-14T04:57:12.377Z,5.30
2018-03-14T04:59:39.938Z,5.30
2018-03-14T05:02:07.401Z,5.30
2018-03-14T05:04:35.669Z,5.30
2018-03-14T05:07:03.138Z,5.30
2018-03-14T05:09:31.361Z,5.40
2018-03-14T05:11:58.856Z,5.30
2018-03-14T05:14:26.333Z,5.40
2018-03-14T05:16:54.561Z,5.40
2018-03-14T05:19:22.062Z,5.30
2018-03-14T05:21:50.313Z,5.30
2018-03-14T05:24:17.770Z,5.20
2018-03-14T05:26:45.257Z,5.30
2018-03-14T05:29:12.786Z,5.20
2018-03-14T05:31:40.254Z,5.20
2018-03-14T05:34:07.709Z,5.30
2018-03-14T05:36:35.165Z,5.20
2018-03-14T05:39:02.823Z,5.30
2018-03-14T05:41:30.281Z,5.30
2018-03-14T05:43:57.793Z,5.30
2018-03-14T05:46:25.290Z,5.30
2018-03-14T05:48:52.761Z,5.30
2018-03-14T05:51:21.181Z,5.20
2018-03-14T05:53:48.736Z,5.20
2018-03-14T05:56:16.198Z,5.20
2018-03-14T05:58:43.677Z,5.20
2018-03-14T06:01:11.133Z,5.30
2018-03-14T06:03:38.613Z,5.30
2018-03-14T06:06:06.075Z,5.30
2018-03-14T06:08:33.529Z,5.30
2018-03-14T06:11:00.998Z,5.40
2018-03-14T06:13:29.259Z,5.40
2018-03-14T06:15:56.727Z,5.40
2018-03-14T06:18:24.958Z,5.50
2018-03-14T06:20:52.421Z,5.50
2018-03-14T06:23:19.883Z,5.50
2018-03-14T06:25:47.412Z,5.50
2018-03-14T06:28:14.916Z,5.40
2018-03-14T06:30:42.528Z,5.40
2018-03-14T06:33:10.038Z,5.40
2018-03-14T06:35:37.586Z,5.50
2018-03-14T06:38:05.043Z,5.50
2018-03-14T06:40:32.503Z,5.50
2018-03-14T06:42:59.971Z,5.50
2018-03-14T06:45:27.518Z,5.60
2018-03-14T06:47:55.082Z,5.50
2018-03-14T06:50:22.537Z,5.50
2018-03-14T06:52:50.001Z,5.50
2018-03-14T06:55:17.546Z,5.50
2018-03-14T06:57:45.013Z,5.50
2018-03-14T07:03:24.987Z,5.40
2018-03-14T07:06:07.090Z,5.50
2018-03-14T07:08:35.562Z,5.80
2018-03-14T07:11:03.641Z,5.70
2018-03-14T07:13:31.323Z,5.80
2018-03-14T07:15:58.857Z,5.80
2018-03-14T07:18:26.470Z,5.70
2018-03-14T07:20:54.025Z,5.80
2018-03-14T07:23:21.481Z,5.90
2018-03-14T07:25:49.065Z,6.00
2018-03-14T07:28:16.617Z,5.90
2018-03-14T07:30:44.162Z,5.80
2018-03-14T07:33:11.778Z,5.80
2018-03-14T07:35:39.330Z,5.70
2018-03-14T07:38:07.809Z,5.90
2018-03-14T07:40:35.394Z,5.80
2018-03-14T07:43:03.016Z,6.00
2018-03-14T07:45:30.578Z,6.00
2018-03-14T07:47:58.268Z,6.00
2018-03-14T07:50:26.598Z,6.00
2018-03-14T07:52:54.244Z,5.90
2018-03-14T07:55:21.818Z,5.90
2018-03-14T07:57:49.459Z,5.90
2018-03-14T08:00:17.070Z,5.90
2018-03-14T08:02:44.660Z,5.90
2018-03-14T08:05:12.223Z,5.90
2018-03-14T08:07:39.824Z,6.00
2018-03-14T08:10:07.385Z,6.00
2018-03-14T08:12:34.933Z,5.90
2018-03-14T08:15:02.512Z,5.90
2018-03-14T08:17:30.124Z,5.90
2018-03-14T08:19:57.691Z,6.00
2018-03-14T08:22:25.233Z,6.00
2018-03-14T08:24:52.787Z,6.00
2018-03-14T08:27:20.369Z,6.00
2018-03-14T08:29:47.981Z,6.00
2018-03-14T08:32:15.649Z,5.90
2018-03-14T08:34:43.967Z,5.90
2018-03-14T08:37:11.573Z,5.80
2018-03-14T08:39:39.141Z,6.00
2018-03-14T08:42:07.554Z,6.00
2018-03-14T08:44:35.163Z,5.90
2018-03-14T08:47:02.758Z,6.00
2018-03-14T08:49:30.428Z,5.80
2018-03-14T08:51:58.000Z,5.80
2018-03-14T08:54:25.566Z,5.80
2018-03-14T08:56:52.966Z,5.80
2018-03-14T08:59:21.231Z,6.00
2018-03-14T09:01:49.509Z,6.00
2018-03-14T09:04:17.745Z,6.10
2018-03-14T09:06:45.241Z,6.00
2018-03-14T09:09:12.722Z,6.20
2018-03-14T09:11:40.963Z,6.30
2018-03-14T09:14:08.446Z,6.20
2018-03-14T09:16:36.694Z,6.40
2018-03-14T09:19:04.269Z,6.30
2018-03-14T09:21:31.726Z,6.30
2018-03-14T09:23:59.310Z,6.40
2018-03-14T09:26:27.541Z,6.40
2018-03-14T09:28:55.001Z,6.30
2018-03-14T09:31:22.577Z,6.40
2018-03-14T09:33:50.042Z,6.40
2018-03-14T09:36:18.302Z,6.50
2018-03-14T09:38:45.766Z,6.50
2018-03-14T09:41:13.246Z,6.60
2018-03-14T09:43:41.501Z,6.60
2018-03-14T09:46:08.967Z,6.50
2018-03-14T09:48:37.230Z,6.60
2018-03-14T09:51:04.700Z,6.60
2018-03-14T09:53:32.958Z,6.80
2018-03-14T09:56:00.429Z,6.80
2018-03-14T09:58:28.742Z,6.90
2018-03-14T10:00:56.226Z,6.90
2018-03-14T10:03:23.695Z,6.90
2018-03-14T10:05:51.165Z,7.00
2018-03-14T10:08:18.640Z,6.80
2018-03-14T10:10:46.889Z,6.80
2018-03-14T10:13:14.348Z,6.80
2018-03-14T10:15:41.825Z,6.80
2018-03-14T10:18:10.100Z,6.80
2018-03-14T10:20:38.410Z,6.80
2018-03-14T10:23:05.866Z,6.80
2018-03-14T10:25:33.390Z,6.80
2018-03-14T10:28:00.829Z,6.70
2018-03-14T10:30:29.061Z,6.30
2018-03-14T10:32:56.533Z,6.20
2018-03-14T10:35:24.005Z,6.30
2018-03-14T10:37:51.477Z,6.50
2018-03-14T10:40:18.938Z,6.70
2018-03-14T10:42:46.420Z,6.70
2018-03-14T10:45:13.945Z,6.90
2018-03-14T10:47:41.435Z,6.80
2018-03-14T10:50:08.962Z,6.80
2018-03-14T10:52:36.436Z,7.00
2018-03-14T10:55:04.700Z,7.10
2018-03-14T10:57:32.201Z,7.00
2018-03-14T10:59:59.656Z,7.00
2018-03-14T11:02:31.685Z,6.90
2018-03-14T11:04:59.908Z,6.80
2018-03-14T11:07:27.401Z,6.70
2018-03-14T11:09:54.953Z,6.80
2018-03-14T11:12:22.413Z,6.90
2018-03-14T11:14:49.970Z,6.90
2018-03-14T11:17:17.553Z,6.90
2018-03-14T11:19:45.809Z,6.90
2018-03-14T11:22:13.306Z,6.80
2018-03-14T11:24:40.781Z,6.80
2018-03-14T11:27:08.246Z,6.70
2018-03-14T11:29:35.782Z,6.70
2018-03-14T11:32:03.293Z,6.50
2018-03-14T11:34:32.265Z,6.30
2018-03-14T11:36:59.799Z,6.30
2018-03-14T11:39:27.310Z,6.30
2018-03-14T11:41:54.870Z,6.30
2018-03-14T11:44:22.346Z,6.40
2018-03-14T11:46:50.564Z,6.40
2018-03-14T11:49:18.106Z,6.30
2018-03-14T11:51:45.571Z,6.30
2018-03-14T11:54:13.068Z,6.30
2018-03-14T11:56:40.734Z,6.30
2018-03-14T11:59:08.201Z,6.30
2018-03-14T12:01:36.518Z,6.40
2018-03-14T12:04:04.100Z,6.30
2018-03-14T12:06:32.087Z,6.40
2018-03-14T12:08:59.558Z,6.50
2018-03-14T12:11:27.926Z,6.70
2018-03-14T12:13:55.514Z,6.70
2018-03-14T12:16:23.575Z,6.80
2018-03-14T12:18:52.492Z,6.80
2018-03-14T12:21:20.342Z,6.80
2018-03-14T12:23:47.811Z,7.00
2018-03-14T12:26:15.420Z,6.80
2018-03-14T12:28:43.052Z,6.80
2018-03-14T12:31:10.631Z,6.70
2018-03-14T12:33:38.189Z,6.60
2018-03-14T12:36:05.658Z,6.70
2018-03-14T12:38:33.230Z,6.70
2018-03-14T12:41:00.681Z,6.70
2018-03-14T12:43:28.959Z,6.80
2018-03-14T12:45:57.233Z,6.80
2018-03-14T12:48:24.791Z,6.70
2018-03-14T12:50:52.247Z,6.70
2018-03-14T12:53:19.798Z,6.60
2018-03-14T12:55:47.314Z,6.60
2018-03-14T12:58:14.817Z,6.50
2018-03-14T13:00:43.049Z,6.80
2018-03-14T13:03:10.529Z,6.70
2018-03-14T13:05:37.989Z,6.80
2018-03-14T13:08:05.474Z,6.80
2018-03-14T13:10:32.944Z,6.80
2018-03-14T13:13:01.204Z,6.90
2018-03-14T13:15:28.995Z,6.80
2018-03-14T13:17:56.620Z,6.80
2018-03-14T13:20:24.911Z,6.90
2018-03-14T13:22:53.174Z,6.80
2018-03-14T13:25:20.650Z,6.80
2018-03-14T13:27:48.958Z,6.80
2018-03-14T13:30:16.563Z,6.80
2018-03-14T13:32:44.030Z,6.90
2018-03-14T13:35:11.528Z,7.00
2018-03-14T13:37:38.986Z,6.80
2018-03-14T13:40:06.450Z,6.80
2018-03-14T13:42:33.917Z,6.90
2018-03-14T13:45:01.410Z,7.00
2018-03-14T13:47:28.890Z,7.10
2018-03-14T13:49:57.110Z,7.20
2018-03-14T13:52:24.597Z,7.10
2018-03-14T13:54:52.098Z,7.20
2018-03-14T13:57:19.564Z,7.20
2018-03-14T13:59:47.070Z,7.20
2018-03-14T14:02:14.537Z,7.20
2018-03-14T14:04:42.766Z,6.90
2018-03-14T14:07:10.239Z,6.80
2018-03-14T14:09:37.693Z,6.80
2018-03-14T14:12:05.166Z,6.90
2018-03-14T14:14:32.626Z,6.90
2018-03-14T14:17:00.102Z,6.90
2018-03-14T14:19:28.338Z,7.00
2018-03-14T14:21:55.819Z,7.00
2018-03-14T14:24:23.269Z,7.10
2018-03-14T14:26:50.825Z,7.10
2018-03-14T14:29:18.289Z,7.20
2018-03-14T14:31:45.758Z,7.30
2018-03-14T14:34:14.050Z,7.30
2018-03-14T14:36:41.514Z,7.20
2018-03-14T14:39:08.969Z,7.20
2018-03-14T14:41:36.468Z,7.20
2018-03-14T14:44:03.921Z,7.20
2018-03-14T14:46:31.385Z,7.20
2018-03-14T14:48:58.857Z,7.20
2018-03-14T14:51:26.312Z,7.10
2018-03-14T14:53:53.873Z,7.20
2018-03-14T14:56:21.330Z,7.30
2018-03-14T14:58:48.902Z,7.40
2018-03-14T15:01:16.370Z,7.50
2018-03-14T15:03:44.625Z,7.60
2018-03-14T15:06:12.182Z,7.60
2018-03-14T15:08:39.662Z,7.70
2018-03-14T15:11:07.910Z,7.50
2018-03-14T15:13:35.385Z,7.40
2018-03-14T15:16:03.617Z,7.50
2018-03-14T15:18:31.097Z,7.40
2018-03-14T15:20:58.657Z,7.40
2018-03-14T15:23:26.217Z,7.40
2018-03-14T15:25:53.673Z,7.40
2018-03-14T15:28:21.177Z,7.40
2018-03-14T15:30:48.638Z,7.20
2018-03-14T15:33:16.104Z,7.20
2018-03-14T15:35:43.581Z,7.40
2018-03-14T15:38:11.041Z,7.50
2018-03-14T15:40:38.497Z,7.60
2018-03-14T15:43:06.028Z,7.60
2018-03-14T15:45:33.493Z,7.50
2018-03-14T15:48:00.997Z,7.40
2018-03-14T15:50:29.238Z,7.20
2018-03-14T15:52:56.709Z,7.20
2018-03-14T15:55:24.169Z,7.30
2018-03-14T15:57:51.629Z,7.30
2018-03-14T16:00:19.098Z,7.40
2018-03-14T16:02:48.117Z,7.30
2018-03-14T16:05:16.419Z,7.30
2018-03-14T16:07:43.881Z,7.30
2018-03-14T16:10:11.381Z,7.40
2018-03-14T16:12:38.858Z,7.40
2018-03-14T16:15:07.082Z,7.50
2018-03-14T16:17:34.554Z,7.50
2018-03-14T16:20:02.015Z,7.50
2018-03-14T16:22:29.479Z,7.50
2018-03-14T16:24:57.196Z,7.50
2018-03-14T16:27:24.814Z,7.40
2018-03-14T16:29:53.038Z,7.40
2018-03-14T16:32:20.505Z,7.30
2018-03-14T16:34:48.806Z,7.30
2018-03-14T16:37:16.279Z,7.20
2018-03-14T16:39:44.505Z,7.30
2018-03-14T16:42:11.979Z,7.20
2018-03-14T16:44:39.557Z,7.20
2018-03-14T16:47:07.036Z,7.20
2018-03-14T16:49:35.261Z,7.10
2018-03-14T16:52:02.755Z,7.00
2018-03-14T16:54:30.979Z,7.00
2018-03-14T16:56:58.479Z,7.00
2018-03-14T16:59:26.031Z,7.00
2018-03-14T17:01:54.314Z,6.80
2018-03-14T17:04:21.778Z,6.80
2018-03-14T17:06:50.025Z,6.90
2018-03-14T17:09:17.493Z,6.90
2018-03-14T17:11:45.058Z,7.00
2018-03-14T17:14:12.731Z,6.90
2018-03-14T17:16:40.964Z,6.70
2018-03-14T17:19:08.456Z,6.70
2018-03-14T17:21:35.926Z,6.70
2018-03-14T17:24:04.166Z,6.70
2018-03-14T17:26:31.650Z,6.70
2018-03-14T17:28:59.107Z,6.70
2018-03-14T17:31:27.352Z,6.70
2018-03-14T17:33:54.830Z,6.60
2018-03-14T17:36:22.336Z,6.60
2018-03-14T17:38:50.543Z,6.60
2018-03-14T17:41:18.005Z,6.50
2018-03-14T17:43:45.513Z,6.50
2018-03-14T17:46:13.775Z,6.50
2018-03-14T17:48:41.985Z,6.40
2018-03-14T17:51:09.442Z,6.40
2018-03-14T17:53:36.901Z,6.50
2018-03-14T17:56:04.649Z,6.40
2018-03-14T17:58:32.113Z,6.40
2018-03-14T18:00:59.592Z,6.40
2018-03-14T18:03:27.082Z,6.40
2018-03-14T18:05:55.306Z,6.30
2018-03-14T18:08:22.820Z,6.30
2018-03-14T18:10:50.366Z,6.30
2018-03-14T18:13:17.833Z,6.30
2018-03-14T18:15:46.066Z,6.40
2018-03-14T18:18:13.534Z,6.30
2018-03-14T18:20:41.133Z,6.40
2018-03-14T18:23:08.673Z,6.40
2018-03-14T18:25:36.194Z,6.40
2018-03-14T18:28:03.649Z,6.40
2018-03-14T18:30:31.142Z,6.50
2018-03-14T18:32:58.693Z,6.60
2018-03-14T18:35:26.254Z,6.60
2018-03-14T18:37:53.709Z,6.60
2018-03-14T18:40:21.173Z,6.50
2018-03-14T18:42:48.787Z,6.40
2018-03-14T18:45:16.302Z,6.40
2018-03-14T18:47:44.536Z,6.40
2018-03-14T18:50:12.010Z,6.40
2018-03-14T18:52:39.582Z,6.40
2018-03-14T18:55:07.919Z,6.40
2018-03-14T18:57:35.385Z,6.30
2018-03-14T19:00:02.857Z,6.30
2018-03-14T19:02:30.337Z,6.30
2018-03-14T19:04:58.569Z,6.30
2018-03-14T19:07:26.160Z,6.20
2018-03-14T19:09:53.716Z,6.30
2018-03-14T19:12:21.188Z,6.40
2018-03-14T19:14:49.417Z,6.30
2018-03-14T19:17:16.898Z,6.30
2018-03-14T19:19:44.358Z,6.30
2018-03-14T19:22:11.846Z,6.30
2018-03-14T19:24:40.105Z,6.40
2018-03-14T19:27:08.339Z,6.40
2018-03-14T19:29:35.798Z,6.30
2018-03-14T19:32:03.337Z,6.40
2018-03-14T19:34:30.806Z,6.40
2018-03-14T19:36:58.262Z,6.20
2018-03-14T19:39:25.757Z,6.30
2018-03-14T19:41:53.310Z,6.20
2018-03-14T19:44:20.873Z,6.30
2018-03-14T19:46:48.358Z,6.30
2018-03-14T19:49:16.585Z,6.30
2018-03-14T19:51:44.078Z,6.20
2018-03-14T19:54:12.331Z,6.10
2018-03-14T19:56:39.802Z,6.10
2018-03-14T19:59:07.359Z,6.10
2018-03-14T20:01:35.689Z,6.20
2018-03-14T20:04:03.202Z,6.20
2018-03-14T20:06:31.438Z,6.10
2018-03-14T20:08:58.970Z,6.10
2018-03-14T20:11:26.423Z,6.20
2018-03-14T20:13:53.884Z,6.20
2018-03-14T20:16:21.465Z,6.20
2018-03-14T20:18:48.942Z,6.20
2018-03-14T20:21:16.410Z,6.30
2018-03-14T20:23:43.962Z,6.40
2018-03-14T20:26:11.522Z,6.30
2018-03-14T20:28:38.985Z,6.20
2018-03-14T20:31:06.552Z,6.10
2018-03-14T20:33:34.777Z,6.00
2018-03-14T20:36:02.267Z,5.90
2018-03-14T20:38:29.728Z,6.00
2018-03-14T20:40:57.236Z,6.00
2018-03-14T20:43:24.693Z,5.90
2018-03-14T20:45:52.197Z,5.80
2018-03-14T20:48:19.754Z,5.80
2018-03-14T20:50:47.326Z,5.70
2018-03-14T20:53:14.801Z,5.70
2018-03-14T20:55:43.051Z,5.70
2018-03-14T20:58:10.622Z,5.60
2018-03-14T21:00:38.898Z,5.80
2018-03-14T21:03:06.361Z,5.80
2018-03-14T21:05:34.595Z,5.80
2018-03-14T21:08:02.070Z,5.80
2018-03-14T21:10:29.545Z,5.90
2018-03-14T21:12:57.798Z,6.00
2018-03-14T21:15:25.272Z,5.90
2018-03-14T21:17:52.788Z,5.90
2018-03-14T21:20:20.269Z,5.70
2018-03-14T21:22:47.758Z,5.60
2018-03-14T21:25:16.006Z,5.80
2018-03-14T21:27:43.482Z,5.70
2018-03-14T21:30:11.749Z,5.80
2018-03-14T21:32:39.302Z,5.80
2018-03-14T21:35:06.854Z,5.80
2018-03-14T21:37:34.371Z,5.80
2018-03-14T21:40:01.832Z,5.80
2018-03-14T21:42:29.301Z,5.70
2018-03-14T21:44:57.410Z,5.60
2018-03-14T21:47:24.883Z,5.60
2018-03-14T21:49:53.133Z,5.50
2018-03-14T21:52:20.594Z,5.50
2018-03-14T21:54:48.062Z,5.60
2018-03-14T21:57:19.037Z,5.70
2018-03-14T21:59:46.608Z,5.60
2018-03-14T22:02:14.017Z,5.70
2018-03-14T22:04:42.271Z,5.70
2018-03-14T22:07:09.738Z,5.60
2018-03-14T22:09:37.289Z,5.60
2018-03-14T22:12:04.786Z,5.50
2018-03-14T22:14:33.045Z,5.50
2018-03-14T22:17:01.272Z,5.60
2018-03-14T22:19:28.745Z,5.50
2018-03-14T22:21:56.309Z,5.60
2018-03-14T22:24:23.771Z,5.70
2018-03-14T22:26:51.240Z,5.80
2018-03-14T22:29:19.488Z,5.70
2018-03-14T22:31:47.061Z,5.60
2018-03-14T22:34:14.526Z,5.60
2018-03-14T22:36:42.073Z,5.50
2018-03-14T22:39:09.531Z,5.40
2018-03-14T22:41:37.086Z,5.40
2018-03-14T22:44:04.650Z,5.30
2018-03-14T22:46:32.206Z,5.40
2018-03-14T22:48:59.765Z,5.40
2018-03-14T22:51:27.229Z,5.50
2018-03-14T22:53:54.790Z,5.50
2018-03-14T22:56:22.350Z,5.40
2018-03-14T22:58:49.810Z,5.30
2018-03-14T23:01:17.269Z,5.30
2018-03-14T23:03:45.525Z,5.30
2018-03-14T23:06:13.043Z,5.30
2018-03-14T23:08:40.553Z,5.30
2018-03-14T23:11:08.821Z,5.40
2018-03-14T23:13:36.418Z,5.30
2018-03-14T23:16:03.880Z,5.50
2018-03-14T23:18:31.362Z,5.60
2018-03-14T23:20:58.845Z,5.70
2018-03-14T23:23:26.402Z,5.70
2018-03-14T23:25:53.974Z,5.70
2018-03-14T23:28:21.429Z,5.80
2018-03-14T23:30:49.039Z,5.80
2018-03-14T23:33:16.543Z,5.80
2018-03-14T23:35:44.010Z,5.80
2018-03-14T23:38:12.287Z,5.60
2018-03-14T23:40:40.599Z,5.70
2018-03-14T23:43:08.106Z,5.60
2018-03-14T23:45:35.585Z,5.70
2018-03-14T23:48:03.809Z,5.60
2018-03-14T23:50:31.334Z,5.60
2018-03-14T23:52:58.918Z,5.50
2018-03-14T23:55:26.374Z,5.50
2018-03-14T23:57:53.849Z,5.50
